Time;durP1;ratioP1;P1;durP2;ratioP2;P2;SDS_P1;SDS_P2;PMS_P1;PMS_P2;Temp;Humidity;BMP_temperature;BMP_pressure;BME280_temperature;BME280_humidity;BME280_pressure;Samples;Min_cycle;Max_cycle;Signal;HPM_P1;HPM_P2
2023/05/17 00:01:55;;;;;;;6.40;2.27;;;;;;;;;;4994475;28;20062;-80
2023/05/17 00:04:21;;;;;;;6.80;2.07;;;;;;;;;;4992863;28;20058;-78
2023/05/17 00:06:47;;;;;;;5.73;1.93;;;;;;;;;;4993717;28;20055;-79
2023/05/17 00:09:19;;;;;;;8.57;2.23;;;;;;;;;;4982688;28;20299;-77
2023/05/17 00:11:45;;;;;;;7.33;2.17;;;;;;;;;;4983476;28;20023;-80
2023/05/17 00:14:11;;;;;;;8.97;2.13;;;;;;;;;;4982695;28;20022;-79
2023/05/17 00:16:39;;;;;;;7.30;2.20;;;;;;;;;;4993944;28;20027;-79
2023/05/17 00:19:08;;;;;;;8.80;2.70;;;;;;;;;;4984237;28;20061;-79
2023/05/17 00:21:34;;;;;;;8.13;2.27;;;;;;;;;;4997512;28;20027;-78
2023/05/17 00:24:03;;;;;;;8.10;2.60;;;;;;;;;;4984011;28;20041;-78
2023/05/17 00:26:29;;;;;;;11.80;2.80;;;;;;;;;;4984272;28;20030;-79
2023/05/17 00:28:55;;;;;;;9.90;2.47;;;;;;;;;;4992245;28;20051;-79
2023/05/17 00:31:21;;;;;;;9.40;2.57;;;;;;;;;;4965066;28;20030;-79
2023/05/17 00:33:47;;;;;;;5.23;2.27;;;;;;;;;;4983060;28;20098;-78
2023/05/17 00:36:16;;;;;;;5.90;2.13;;;;;;;;;;4982691;28;20023;-79
2023/05/17 00:38:42;;;;;;;6.60;2.63;;;;;;;;;;4984537;28;20026;-80
2023/05/17 00:41:10;;;;;;;8.63;2.23;;;;;;;;;;5000472;28;20059;-80
2023/05/17 00:43:41;;;;;;;11.53;2.40;;;;;;;;;;4983640;28;20050;-79
2023/05/17 00:46:07;;;;;;;6.83;2.10;;;;;;;;;;4983679;28;20030;-78
2023/05/17 00:48:35;;;;;;;9.80;2.60;;;;;;;;;;4992326;28;20133;-79
2023/05/17 00:51:02;;;;;;;9.53;2.60;;;;;;;;;;4974826;28;20093;-79
2023/05/17 00:53:29;;;;;;;11.20;2.87;;;;;;;;;;4991091;28;20014;-79
2023/05/17 00:55:55;;;;;;;6.00;2.60;;;;;;;;;;4991441;28;20029;-79
2023/05/17 00:58:22;;;;;;;8.60;2.97;;;;;;;;;;4983501;28;20026;-79
2023/05/17 01:00:49;;;;;;;7.03;2.47;;;;;;;;;;4983377;28;20038;-79
2023/05/17 01:03:15;;;;;;;9.57;2.80;;;;;;;;;;4982031;28;20022;-80
2023/05/17 01:05:44;;;;;;;9.47;2.93;;;;;;;;;;4997662;28;20019;-78
2023/05/17 01:08:10;;;;;;;9.53;3.00;;;;;;;;;;4980340;28;20034;-78
2023/05/17 01:10:38;;;;;;;9.33;3.07;;;;;;;;;;4980833;28;20011;-79
2023/05/17 01:13:30;;;;;;;12.10;2.90;;;;;;;;;;5000022;28;20038;-79
2023/05/17 01:16:01;;;;;;;6.65;2.25;;;;;;;;;;4971192;28;20022;-80
2023/05/17 01:18:34;;;;;;;9.80;3.07;;;;;;;;;;4992104;28;20018;-79
2023/05/17 01:21:00;;;;;;;;;;;;;;;;;;5001733;28;20030;-77
2023/05/17 01:23:31;;;;;;;7.00;2.77;;;;;;;;;;4998819;28;19901;-80
2023/05/17 01:26:04;;;;;;;5.03;2.33;;;;;;;;;;4993906;28;20011;-79
2023/05/17 01:28:33;;;;;;;8.00;2.47;;;;;;;;;;4992164;28;20019;-79
2023/05/17 01:31:02;;;;;;;7.50;2.77;;;;;;;;;;4991810;28;20026;-80
2023/05/17 01:33:29;;;;;;;10.27;3.50;;;;;;;;;;4998134;28;20031;-79
2023/05/17 01:35:55;;;;;;;10.07;3.03;;;;;;;;;;4980162;28;20152;-79
2023/05/17 01:38:21;;;;;;;10.37;3.17;;;;;;;;;;4984011;28;20026;-79
2023/05/17 01:40:51;;;;;;;13.43;3.87;;;;;;;;;;4981891;28;20019;-78
2023/05/17 01:43:23;;;;;;;6.73;3.00;;;;;;;;;;4998154;28;20046;-79
2023/05/17 01:45:57;;;;;;;16.57;3.40;;;;;;;;;;4982958;28;20018;-79
2023/05/17 01:48:31;;;;;;;10.83;3.70;;;;;;;;;;4980016;28;20061;-78
2023/05/17 01:51:03;;;;;;;7.17;3.30;;;;;;;;;;4991599;28;20037;-79
2023/05/17 01:53:58;;;;;;;7.65;3.28;;;;;;;;;;4980707;28;20041;-79
2023/05/17 01:56:28;;;;;;;8.83;3.33;;;;;;;;;;4970161;28;20073;-80
2023/05/17 01:58:56;;;;;;;6.67;3.20;;;;;;;;;;5001863;28;20114;-78
2023/05/17 02:01:22;;;;;;;9.70;4.07;;;;;;;;;;4997986;28;20038;-79
2023/05/17 02:03:49;;;;;;;16.80;4.60;;;;;;;;;;4992947;28;20041;-80
2023/05/17 02:06:15;;;;;;;16.73;4.13;;;;;;;;;;4996287;28;20090;-79
2023/05/17 02:08:41;;;;;;;11.90;4.70;;;;;;;;;;4991616;28;20015;-80
2023/05/17 02:11:07;;;;;;;14.03;4.33;;;;;;;;;;4983318;28;20030;-80
2023/05/17 02:13:36;;;;;;;11.53;3.80;;;;;;;;;;4982383;28;20038;-79
2023/05/17 02:16:03;;;;;;;14.20;4.77;;;;;;;;;;4980714;28;20018;-79
2023/05/17 02:18:29;;;;;;;12.83;4.87;;;;;;;;;;5000832;28;20015;-79
2023/05/17 02:20:55;;;;;;;21.00;4.73;;;;;;;;;;4980361;28;20026;-79
2023/05/17 02:23:23;;;;;;;14.80;4.93;;;;;;;;;;4997331;28;20011;-79
2023/05/17 02:25:49;;;;;;;11.83;4.97;;;;;;;;;;4991786;28;20015;-79
2023/05/17 02:28:15;;;;;;;12.97;5.07;;;;;;;;;;4980131;28;20037;-80
2023/05/17 02:30:42;;;;;;;13.57;5.20;;;;;;;;;;4988805;28;20026;-79
2023/05/17 02:33:08;;;;;;;12.97;5.70;;;;;;;;;;4982085;28;20023;-79
2023/05/17 02:35:34;;;;;;;19.10;6.00;;;;;;;;;;4982160;28;20030;-78
2023/05/17 02:38:06;;;;;;;18.17;6.50;;;;;;;;;;4981726;28;20074;-80
2023/05/17 02:40:32;;;;;;;19.00;6.20;;;;;;;;;;4996491;28;20017;-79
2023/05/17 02:42:58;;;;;;;19.17;5.93;;;;;;;;;;4997214;28;20042;-78
2023/05/17 02:45:24;;;;;;;26.53;8.03;;;;;;;;;;4991472;28;20026;-78
2023/05/17 02:47:51;;;;;;;13.57;6.23;;;;;;;;;;4992160;28;20074;-79
2023/05/17 02:50:17;;;;;;;16.17;6.13;;;;;;;;;;4995857;28;20027;-78
2023/05/17 02:52:43;;;;;;;14.77;6.47;;;;;;;;;;4989795;28;20022;-79
2023/05/17 02:55:09;;;;;;;23.97;6.50;;;;;;;;;;4997973;28;20090;-79
2023/05/17 02:57:35;;;;;;;24.47;7.37;;;;;;;;;;4997642;28;20011;-79
2023/05/17 03:00:01;;;;;;;14.13;6.60;;;;;;;;;;4982139;28;20042;-79
2023/05/17 03:02:27;;;;;;;19.80;7.13;;;;;;;;;;4985401;28;20023;-79
2023/05/17 03:04:53;;;;;;;21.73;6.70;;;;;;;;;;4985159;28;20017;-79
2023/05/17 03:07:19;;;;;;;26.10;8.00;;;;;;;;;;4992489;28;20030;-79
2023/05/17 03:09:45;;;;;;;24.20;8.40;;;;;;;;;;4994527;28;20030;-79
2023/05/17 03:12:11;;;;;;;14.10;7.07;;;;;;;;;;4992454;28;20015;-80
2023/05/17 03:14:37;;;;;;;16.63;7.87;;;;;;;;;;4984044;28;20034;-79
2023/05/17 03:17:03;;;;;;;19.00;7.47;;;;;;;;;;4996050;28;20027;-78
2023/05/17 03:19:29;;;;;;;27.30;8.10;;;;;;;;;;4985934;28;20014;-80
2023/05/17 03:21:55;;;;;;;24.70;7.67;;;;;;;;;;5001565;28;20082;-79
2023/05/17 03:24:21;;;;;;;23.10;8.27;;;;;;;;;;4985739;28;20023;-81
2023/05/17 03:26:47;;;;;;;23.10;8.57;;;;;;;;;;4993438;28;20057;-79
2023/05/17 03:29:13;;;;;;;19.47;9.27;;;;;;;;;;4994408;28;20062;-79
2023/05/17 03:31:39;;;;;;;24.17;8.20;;;;;;;;;;4995905;28;20027;-78
2023/05/17 03:34:05;;;;;;;21.20;8.73;;;;;;;;;;4984844;28;20046;-80
2023/05/17 03:36:33;;;;;;;20.77;8.90;;;;;;;;;;4993339;28;20031;-81
2023/05/17 03:39:02;;;;;;;21.10;8.13;;;;;;;;;;5000209;28;20030;-80
2023/05/17 03:41:31;;;;;;;23.90;9.03;;;;;;;;;;4984332;28;20038;-80
2023/05/17 03:43:57;;;;;;;28.87;9.87;;;;;;;;;;4984327;28;20054;-80
2023/05/17 03:46:23;;;;;;;28.93;9.00;;;;;;;;;;4998946;28;20070;-78
2023/05/17 03:48:52;;;;;;;25.80;9.33;;;;;;;;;;4994060;28;20025;-79
2023/05/17 03:51:18;;;;;;;23.93;9.17;;;;;;;;;;4982661;28;20095;-80
2023/05/17 03:53:47;;;;;;;28.00;9.90;;;;;;;;;;4984016;28;20070;-82
2023/05/17 03:56:14;;;;;;;23.93;8.70;;;;;;;;;;4985191;28;20025;-79
2023/05/17 03:58:43;;;;;;;27.27;9.47;;;;;;;;;;4992971;28;20031;-79
2023/05/17 04:01:09;;;;;;;26.67;8.60;;;;;;;;;;4995542;28;20038;-79
2023/05/17 04:03:42;;;;;;;23.13;7.83;;;;;;;;;;5001404;28;20010;-79
2023/05/17 04:06:11;;;;;;;27.67;8.37;;;;;;;;;;4998817;28;20031;-79
2023/05/17 04:08:37;;;;;;;21.13;8.70;;;;;;;;;;4993725;28;20023;-79
2023/05/17 04:11:09;;;;;;;30.33;10.27;;;;;;;;;;4981716;28;20023;-79
2023/05/17 04:13:38;;;;;;;28.55;9.57;;;;;;;;;;4998446;28;20061;-79
2023/05/17 04:16:05;;;;;;;27.67;10.27;;;;;;;;;;4998982;28;20038;-80
2023/05/17 04:18:34;;;;;;;34.17;10.43;;;;;;;;;;4982009;28;20083;-79
2023/05/17 04:21:03;;;;;;;28.43;9.50;;;;;;;;;;4983195;28;20042;-80
2023/05/17 04:23:29;;;;;;;19.80;9.00;;;;;;;;;;4992349;28;20022;-80
2023/05/17 04:25:57;;;;;;;34.37;10.10;;;;;;;;;;4999043;28;20066;-80
2023/05/17 04:28:24;;;;;;;25.50;8.97;;;;;;;;;;4983653;28;20035;-80
2023/05/17 04:30:53;;;;;;;26.53;8.90;;;;;;;;;;4986506;28;20041;-80
2023/05/17 04:33:19;;;;;;;22.53;9.50;;;;;;;;;;4983264;28;20007;-79
2023/05/17 04:35:48;;;;;;;26.33;9.40;;;;;;;;;;5002029;28;20041;-79
2023/05/17 04:38:16;;;;;;;27.83;9.60;;;;;;;;;;4998184;28;20027;-80
2023/05/17 04:40:42;;;;;;;27.57;9.53;;;;;;;;;;4993204;28;20055;-79
2023/05/17 04:43:08;;;;;;;25.03;9.67;;;;;;;;;;4991700;28;20026;-80
2023/05/17 04:45:36;;;;;;;28.13;10.43;;;;;;;;;;4982803;28;20107;-81
2023/05/17 04:48:02;;;;;;;22.60;9.33;;;;;;;;;;4983691;28;20042;-80
2023/05/17 04:50:28;;;;;;;29.50;10.13;;;;;;;;;;4980051;28;20042;-79
2023/05/17 04:52:56;;;;;;;19.87;8.90;;;;;;;;;;4982346;28;20057;-79
2023/05/17 04:55:24;;;;;;;28.87;9.97;;;;;;;;;;4983341;28;20026;-78
2023/05/17 04:57:51;;;;;;;36.83;10.57;;;;;;;;;;4983055;28;20006;-79
2023/05/17 05:00:22;;;;;;;26.43;11.50;;;;;;;;;;4977195;28;20019;-78
2023/05/17 05:02:48;;;;;;;29.27;9.50;;;;;;;;;;4998563;28;20030;-79
2023/05/17 05:05:14;;;;;;;31.37;12.13;;;;;;;;;;4982486;28;20050;-79
2023/05/17 05:07:40;;;;;;;34.67;11.33;;;;;;;;;;4976352;28;20046;-79
2023/05/17 05:10:16;;;;;;;30.33;11.07;;;;;;;;;;4992077;28;20038;-79
2023/05/17 05:12:45;;;;;;;34.57;11.73;;;;;;;;;;4982436;28;20011;-79
2023/05/17 05:15:14;;;;;;;25.23;10.60;;;;;;;;;;4991969;28;20252;-78
2023/05/17 05:17:40;;;;;;;26.90;11.30;;;;;;;;;;4991129;28;20050;-80
2023/05/17 05:20:06;;;;;;;24.77;11.30;;;;;;;;;;4982908;28;20014;-79
2023/05/17 05:22:34;;;;;;;27.13;10.60;;;;;;;;;;4983461;28;20037;-80
2023/05/17 05:25:00;;;;;;;26.10;10.93;;;;;;;;;;4991576;28;20026;-79
2023/05/17 05:27:26;;;;;;;27.17;10.40;;;;;;;;;;4982377;28;20106;-79
2023/05/17 05:29:53;;;;;;;26.30;10.10;;;;;;;;;;4982149;28;20035;-78
2023/05/17 05:32:19;;;;;;;25.00;11.73;;;;;;;;;;4996456;28;20022;-79
2023/05/17 05:34:45;;;;;;;33.57;10.97;;;;;;;;;;4973691;28;20030;-79
2023/05/17 05:37:11;;;;;;;29.90;10.63;;;;;;;;;;4982120;28;20041;-79
2023/05/17 05:39:37;;;;;;;26.17;12.10;;;;;;;;;;4981455;28;20053;-78
2023/05/17 05:42:03;;;;;;;23.40;11.03;;;;;;;;;;4981801;28;20026;-80
2023/05/17 05:44:30;;;;;;;34.37;11.10;;;;;;;;;;4980816;28;20023;-80
2023/05/17 05:46:58;;;;;;;31.30;11.20;;;;;;;;;;4981505;28;20019;-79
2023/05/17 05:49:25;;;;;;;32.50;13.03;;;;;;;;;;4980701;28;20057;-78
2023/05/17 05:51:54;;;;;;;34.47;13.60;;;;;;;;;;5001761;28;20034;-80
2023/05/17 05:54:20;;;;;;;35.77;11.93;;;;;;;;;;4982846;28;20015;-80
2023/05/17 05:56:46;;;;;;;27.70;11.80;;;;;;;;;;4991269;28;20082;-79
2023/05/17 05:59:14;;;;;;;33.43;13.17;;;;;;;;;;4980783;28;20022;-78
2023/05/17 06:01:40;;;;;;;35.17;13.17;;;;;;;;;;4997323;28;20015;-80
2023/05/17 06:04:06;;;;;;;32.40;12.17;;;;;;;;;;4982638;28;20045;-79
2023/05/17 06:06:32;;;;;;;29.00;12.53;;;;;;;;;;4981065;28;20043;-80
2023/05/17 06:08:58;;;;;;;35.57;13.43;;;;;;;;;;4999190;28;20037;-79
2023/05/17 06:11:36;;;;;;;33.10;15.40;;;;;;;;;;4990430;28;20042;-79
2023/05/17 06:14:05;;;;;;;39.00;16.20;;;;;;;;;;4982016;28;20045;-78
2023/05/17 06:16:31;;;;;;;27.37;15.57;;;;;;;;;;4996141;28;20050;-81
2023/05/17 06:18:57;;;;;;;30.73;16.50;;;;;;;;;;4980809;28;20072;-79
2023/05/17 06:21:24;;;;;;;35.13;16.80;;;;;;;;;;4990712;28;20031;-76
2023/05/17 06:23:50;;;;;;;42.40;18.10;;;;;;;;;;4978560;28;20053;-79
2023/05/17 06:26:18;;;;;;;39.00;18.30;;;;;;;;;;4998007;28;20083;-80
2023/05/17 06:28:47;;;;;;;44.10;19.23;;;;;;;;;;4982350;28;20035;-80
2023/05/17 06:31:13;;;;;;;42.77;18.43;;;;;;;;;;4980298;28;20045;-81
2023/05/17 06:33:39;;;;;;;38.37;18.30;;;;;;;;;;4982146;28;20022;-81
2023/05/17 06:36:05;;;;;;;37.87;17.83;;;;;;;;;;4976324;28;20023;-79
2023/05/17 06:38:31;;;;;;;46.23;19.27;;;;;;;;;;4979298;28;20018;-80
2023/05/17 06:40:57;;;;;;;37.23;18.07;;;;;;;;;;4993253;28;20079;-79
2023/05/17 06:43:26;;;;;;;35.57;17.43;;;;;;;;;;4995536;28;21047;-80
2023/05/17 06:45:59;;;;;;;34.07;18.40;;;;;;;;;;5001875;28;20048;-80
2023/05/17 06:48:28;;;;;;;35.53;15.20;;;;;;;;;;4986374;28;20057;-79
2023/05/17 06:50:56;;;;;;;32.53;13.70;;;;;;;;;;5003814;28;20045;-80
2023/05/17 06:53:28;;;;;;;26.30;12.03;;;;;;;;;;5000933;28;20014;-79
2023/05/17 06:55:56;;;;;;;27.93;11.63;;;;;;;;;;5002577;28;20039;-79
2023/05/17 06:58:25;;;;;;;24.63;10.30;;;;;;;;;;4980786;28;20086;-79
2023/05/17 07:00:56;;;;;;;26.80;8.77;;;;;;;;;;4979039;28;20031;-79
2023/05/17 07:03:25;;;;;;;26.40;9.07;;;;;;;;;;4994046;28;20039;-78
2023/05/17 07:05:51;;;;;;;24.53;8.40;;;;;;;;;;5002449;28;20090;-78
2023/05/17 07:08:22;;;;;;;22.50;8.97;;;;;;;;;;4998995;28;20098;-80
2023/05/17 07:10:51;;;;;;;17.37;7.67;;;;;;;;;;4984512;28;20061;-79
2023/05/17 07:13:19;;;;;;;24.57;7.03;;;;;;;;;;4982251;28;20037;-77
2023/05/17 07:15:48;;;;;;;19.67;7.87;;;;;;;;;;4982123;28;20019;-78
2023/05/17 07:18:15;;;;;;;24.43;8.10;;;;;;;;;;4982720;28;20065;-79
2023/05/17 07:20:48;;;;;;;28.80;12.20;;;;;;;;;;4981845;28;20061;-79
2023/05/17 07:23:14;;;;;;;28.73;12.60;;;;;;;;;;4985237;28;20022;-80
2023/05/17 07:25:43;;;;;;;25.93;8.77;;;;;;;;;;5051613;23;20037;-78
2023/05/17 07:28:09;;;;;;;23.90;7.90;;;;;;;;;;5000368;28;20034;-78
2023/05/17 07:30:38;;;;;;;20.17;6.80;;;;;;;;;;4996798;28;20022;-79
2023/05/17 07:33:14;;;;;;;26.23;7.20;;;;;;;;;;4997705;28;20026;-80
2023/05/17 07:35:46;;;;;;;21.30;7.47;;;;;;;;;;4997375;28;20018;-78
2023/05/17 07:38:34;;;;;;;22.97;8.37;;;;;;;;;;4996671;28;20058;-80
2023/05/17 07:41:00;;;;;;;20.43;6.20;;;;;;;;;;4996063;28;20029;-79
2023/05/17 07:43:27;;;;;;;20.93;5.97;;;;;;;;;;4999129;28;20034;-79
2023/05/17 07:45:53;;;;;;;17.03;5.87;;;;;;;;;;4997209;28;20022;-79
2023/05/17 07:48:19;;;;;;;26.03;5.97;;;;;;;;;;4999006;28;20102;-79
2023/05/17 07:50:45;;;;;;;15.77;4.57;;;;;;;;;;4995981;28;20046;-80
2023/05/17 07:53:11;;;;;;;14.30;4.10;;;;;;;;;;4992865;28;20054;-79
2023/05/17 07:55:40;;;;;;;16.50;4.63;;;;;;;;;;4996205;28;20063;-79
2023/05/17 07:58:10;;;;;;;13.63;4.10;;;;;;;;;;4998953;28;20017;-79
2023/05/17 08:00:36;;;;;;;16.87;3.70;;;;;;;;;;4995329;28;20035;-80
2023/05/17 08:03:02;;;;;;;19.60;4.00;;;;;;;;;;4996663;28;20038;-79
2023/05/17 08:05:32;;;;;;;22.00;4.30;;;;;;;;;;4996064;28;20034;-79
2023/05/17 08:07:59;;;;;;;18.40;3.90;;;;;;;;;;4997090;28;20049;-80
2023/05/17 08:10:26;;;;;;;11.33;3.17;;;;;;;;;;4993517;28;20042;-80
2023/05/17 08:12:52;;;;;;;19.93;3.57;;;;;;;;;;4996690;28;20030;-79
2023/05/17 08:15:20;;;;;;;13.13;3.50;;;;;;;;;;4995179;28;20046;-78
2023/05/17 08:18:18;;;;;;;17.07;3.80;;;;;;;;;;4998112;28;20216;-78
2023/05/17 08:20:52;;;;;;;15.13;3.43;;;;;;;;;;4978774;28;20054;-79
2023/05/17 08:23:21;;;;;;;13.70;3.70;;;;;;;;;;4995635;28;20034;-79
2023/05/17 08:25:47;;;;;;;14.23;3.30;;;;;;;;;;4993669;28;20101;-79
2023/05/17 08:28:13;;;;;;;12.27;3.10;;;;;;;;;;4995128;28;20027;-79
2023/05/17 08:30:41;;;;;;;17.37;4.70;;;;;;;;;;4992384;28;20017;-80
2023/05/17 08:33:10;;;;;;;12.27;2.70;;;;;;;;;;4996466;28;20015;-78
2023/05/17 08:35:36;;;;;;;13.47;2.70;;;;;;;;;;4991252;28;20019;-79
2023/05/17 08:38:03;;;;;;;18.27;3.27;;;;;;;;;;4993716;28;20086;-80
2023/05/17 08:40:29;;;;;;;14.03;3.07;;;;;;;;;;4997964;28;20033;-80
2023/05/17 08:42:56;;;;;;;8.80;2.43;;;;;;;;;;4999009;28;20033;-77
2023/05/17 08:45:26;;;;;;;9.37;2.57;;;;;;;;;;4999181;28;20099;-80
2023/05/17 08:47:54;;;;;;;12.63;2.57;;;;;;;;;;4996572;28;20065;-78
2023/05/17 08:52:54;;;;;;;10.80;1.67;;;;;;;;;;5005843;28;20054;-79
2023/05/17 08:55:20;;;;;;;8.63;2.03;;;;;;;;;;5026489;28;20035;-77
2023/05/17 08:57:47;;;;;;;11.53;2.53;;;;;;;;;;5018461;28;20015;-80
2023/05/17 09:00:17;;;;;;;9.30;1.93;;;;;;;;;;5003291;28;20022;-79
2023/05/17 09:02:43;;;;;;;16.17;2.23;;;;;;;;;;5003281;28;20007;-78
2023/05/17 09:05:09;;;;;;;7.40;1.80;;;;;;;;;;5008678;28;20034;-77
2023/05/17 09:07:36;;;;;;;11.33;2.53;;;;;;;;;;5023795;28;20135;-79
2023/05/17 09:10:05;;;;;;;10.00;2.27;;;;;;;;;;5013822;28;20086;-78
2023/05/17 09:12:33;;;;;;;10.53;2.50;;;;;;;;;;5008673;28;20045;-79
2023/05/17 09:15:16;;;;;;;19.30;2.90;;;;;;;;;;5020817;28;20134;-78
2023/05/17 09:17:52;;;;;;;13.03;2.20;;;;;;;;;;5025265;28;20044;-79
2023/05/17 09:20:27;;;;;;;9.03;2.03;;;;;;;;;;5019271;28;20027;-79
2023/05/17 09:22:54;;;;;;;10.17;2.23;;;;;;;;;;5025693;28;20042;-78
2023/05/17 09:25:23;;;;;;;11.47;2.00;;;;;;;;;;5012249;28;20041;-80
2023/05/17 09:27:53;;;;;;;17.40;2.53;;;;;;;;;;5024811;28;20054;-79
2023/05/17 09:30:19;;;;;;;16.20;2.67;;;;;;;;;;5012661;28;20026;-79
2023/05/17 09:32:52;;;;;;;9.67;2.00;;;;;;;;;;5006184;28;20156;-79
2023/05/17 09:35:18;;;;;;;9.03;2.20;;;;;;;;;;5022109;28;20014;-79
2023/05/17 09:37:45;;;;;;;12.60;2.17;;;;;;;;;;5009799;28;20043;-79
2023/05/17 09:40:21;;;;;;;10.70;2.20;;;;;;;;;;5024085;28;20264;-79
2023/05/17 09:42:50;;;;;;;12.23;2.67;;;;;;;;;;5008569;28;20042;-80
2023/05/17 09:45:26;;;;;;;17.53;3.20;;;;;;;;;;5022476;28;20027;-80
2023/05/17 09:47:52;;;;;;;8.73;2.43;;;;;;;;;;5025307;28;20065;-79
2023/05/17 09:50:19;;;;;;;13.50;2.57;;;;;;;;;;5022193;28;20030;-80
2023/05/17 09:52:45;;;;;;;15.13;2.67;;;;;;;;;;5011890;28;20110;-79
2023/05/17 09:55:11;;;;;;;12.03;2.97;;;;;;;;;;5018198;28;20249;-79
2023/05/17 09:57:45;;;;;;;11.33;2.77;;;;;;;;;;5082519;22;20054;-79
2023/05/17 10:00:12;;;;;;;19.77;3.83;;;;;;;;;;5005303;28;20027;-78
2023/05/17 10:05:14;;;;;;;11.40;3.43;;;;;;;;;;5145890;23;2442330;-79
2023/05/17 10:07:40;;;;;;;18.73;3.60;;;;;;;;;;5005716;28;20027;-79
2023/05/17 10:10:07;;;;;;;13.27;3.17;;;;;;;;;;5008171;28;20026;-79
2023/05/17 10:12:34;;;;;;;19.53;4.53;;;;;;;;;;5005705;28;20021;-79
2023/05/17 10:15:03;;;;;;;14.97;3.73;;;;;;;;;;5003589;28;20030;-79
2023/05/17 10:17:31;;;;;;;13.30;3.33;;;;;;;;;;5003897;28;20132;-79
2023/05/17 10:19:57;;;;;;;14.70;4.57;;;;;;;;;;5002410;28;20078;-79
2023/05/17 10:25:39;;;;;;;18.27;4.03;;;;;;;;;;4992517;28;20204;-80
2023/05/17 10:28:06;;;;;;;16.90;3.80;;;;;;;;;;5004918;28;20054;-79
2023/05/17 10:30:33;;;;;;;12.23;3.53;;;;;;;;;;4997189;28;20015;-78
2023/05/17 10:33:00;;;;;;;14.20;3.30;;;;;;;;;;4997449;28;20037;-78
2023/05/17 10:35:31;;;;;;;12.67;3.20;;;;;;;;;;5004046;28;20035;-79
2023/05/17 10:37:57;;;;;;;14.00;2.87;;;;;;;;;;5006556;28;20018;-78
2023/05/17 10:40:31;;;;;;;14.07;3.23;;;;;;;;;;4998643;28;20027;-78
2023/05/17 10:43:00;;;;;;;11.70;3.30;;;;;;;;;;5001421;28;20023;-79
2023/05/17 10:45:27;;;;;;;11.23;2.83;;;;;;;;;;4995659;28;20023;-79
2023/05/17 10:47:53;;;;;;;10.20;2.90;;;;;;;;;;5006199;28;20054;-79
2023/05/17 10:50:23;;;;;;;9.77;2.37;;;;;;;;;;5002441;28;20023;-79
2023/05/17 10:52:50;;;;;;;11.17;2.73;;;;;;;;;;5002282;28;20043;-78
2023/05/17 10:55:20;;;;;;;12.97;2.93;;;;;;;;;;5003640;28;20026;-79
2023/05/17 10:58:05;;;;;;;11.40;3.10;;;;;;;;;;5006002;28;20015;-80
2023/05/17 11:00:31;;;;;;;9.77;2.73;;;;;;;;;;5001514;28;20027;-79
2023/05/17 11:03:16;;;;;;;15.60;3.50;;;;;;;;;;5001705;28;20247;-80
2023/05/17 11:05:45;;;;;;;12.93;3.13;;;;;;;;;;5004051;28;20514;-78
2023/05/17 11:08:13;;;;;;;11.50;3.20;;;;;;;;;;5003240;28;20130;-78
2023/05/17 11:10:59;;;;;;;6.73;2.93;;;;;;;;;;5003502;28;20033;-80
2023/05/17 11:13:28;;;;;;;11.77;3.10;;;;;;;;;;5003353;28;20058;-78
2023/05/17 11:16:04;;;;;;;15.17;4.17;;;;;;;;;;4992163;28;20027;-78
2023/05/17 11:18:48;;;;;;;11.07;3.60;;;;;;;;;;5003872;28;20037;-78
2023/05/17 11:21:15;;;;;;;9.50;3.90;;;;;;;;;;5006240;28;20201;-79
2023/05/17 11:23:42;;;;;;;14.07;3.77;;;;;;;;;;5005589;28;20026;-78
2023/05/17 11:26:20;;;;;;;19.73;3.58;;;;;;;;;;5005875;28;20026;-79
2023/05/17 11:28:59;;;;;;;12.10;3.38;;;;;;;;;;5006032;28;20031;-78
2023/05/17 11:31:29;;;;;;;9.90;3.45;;;;;;;;;;5007871;28;20014;-80
2023/05/17 11:33:59;;;;;;;11.73;3.22;;;;;;;;;;5005399;28;20094;-78
2023/05/17 11:36:27;;;;;;;13.50;3.33;;;;;;;;;;5005510;28;20030;-79
2023/05/17 11:39:10;;;;;;;10.85;3.08;;;;;;;;;;5005586;28;20026;-78
2023/05/17 11:41:40;;;;;;;11.93;3.70;;;;;;;;;;5007053;28;20034;-77
2023/05/17 11:44:08;;;;;;;14.23;3.20;;;;;;;;;;5243973;23;20106;-78
2023/05/17 11:46:37;;;;;;;8.43;3.10;;;;;;;;;;5015091;28;20019;-78
2023/05/17 11:49:06;;;;;;;12.40;3.40;;;;;;;;;;4994434;28;20029;-78
2023/05/17 11:51:35;;;;;;;10.65;3.03;;;;;;;;;;5004200;28;20078;-78
2023/05/17 11:54:03;;;;;;;14.20;2.83;;;;;;;;;;4999276;28;20034;-79
2023/05/17 11:56:34;;;;;;;8.20;2.53;;;;;;;;;;5004173;28;20026;-78
2023/05/17 11:59:01;;;;;;;12.57;2.95;;;;;;;;;;5004898;28;20030;-78
2023/05/17 12:01:27;;;;;;;8.23;2.67;;;;;;;;;;4996863;28;20035;-79
2023/05/17 12:03:59;;;;;;;11.68;2.90;;;;;;;;;;4997042;28;20037;-77
2023/05/17 12:06:38;;;;;;;10.98;2.75;;;;;;;;;;5011225;28;20041;-78
2023/05/17 12:09:09;;;;;;;12.20;2.88;;;;;;;;;;4995079;28;20029;-78
2023/05/17 12:11:38;;;;;;;14.70;2.83;;;;;;;;;;5000807;28;20240;-78
2023/05/17 12:14:07;;;;;;;10.18;2.95;;;;;;;;;;5000122;28;20026;-79
2023/05/17 12:16:34;;;;;;;15.20;3.60;;;;;;;;;;5012304;28;20018;-78
2023/05/17 12:19:00;;;;;;;11.43;2.50;;;;;;;;;;5006046;28;20014;-79
2023/05/17 12:21:26;;;;;;;13.13;3.70;;;;;;;;;;4999365;28;20030;-78
2023/05/17 12:23:52;;;;;;;9.45;3.20;;;;;;;;;;5013622;28;20045;-78
2023/05/17 12:26:21;;;;;;;10.70;3.35;;;;;;;;;;5007400;28;20018;-79
2023/05/17 12:29:00;;;;;;;10.20;2.88;;;;;;;;;;4999588;28;20031;-78
2023/05/17 12:31:26;;;;;;;12.32;3.25;;;;;;;;;;5012354;28;20026;-78
2023/05/17 12:33:52;;;;;;;13.30;3.05;;;;;;;;;;5011534;28;20019;-79
2023/05/17 12:36:18;;;;;;;11.00;3.28;;;;;;;;;;5001871;28;20126;-80
2023/05/17 12:38:46;;;;;;;14.90;3.67;;;;;;;;;;4994996;28;20082;-80
2023/05/17 12:41:12;;;;;;;12.35;3.05;;;;;;;;;;5012974;28;20687;-80
2023/05/17 12:43:39;;;;;;;12.15;3.22;;;;;;;;;;4990571;28;20038;-79
2023/05/17 12:46:06;;;;;;;9.35;2.47;;;;;;;;;;4999349;28;20042;-79
2023/05/17 12:48:35;;;;;;;10.05;3.13;;;;;;;;;;5011113;28;20053;-79
2023/05/17 12:51:08;;;;;;;10.25;2.97;;;;;;;;;;5002250;28;20037;-78
2023/05/17 12:53:36;;;;;;;12.32;3.10;;;;;;;;;;4998545;28;20061;-78
2023/05/17 12:56:02;;;;;;;10.65;3.25;;;;;;;;;;4999844;28;20069;-78
2023/05/17 12:58:28;;;;;;;14.30;3.30;;;;;;;;;;5002586;28;20018;-79
2023/05/17 13:01:00;;;;;;;11.15;2.80;;;;;;;;;;5011253;28;20015;-79
2023/05/17 13:03:31;;;;;;;10.98;3.00;;;;;;;;;;4997053;28;20017;-78
2023/05/17 13:06:09;;;;;;;11.45;3.08;;;;;;;;;;4999694;28;20082;-77
2023/05/17 13:08:36;;;;;;;8.55;2.75;;;;;;;;;;5003252;28;20026;-79
2023/05/17 13:11:08;;;;;;;12.50;2.92;;;;;;;;;;5012116;28;20117;-78
2023/05/17 13:13:34;;;;;;;7.88;2.47;;;;;;;;;;5014628;28;20014;-77
2023/05/17 13:16:00;;;;;;;9.05;2.65;;;;;;;;;;5117302;23;20091;-78
2023/05/17 13:18:28;;;;;;;11.05;2.33;;;;;;;;;;4990521;28;20078;-78
2023/05/17 13:20:54;;;;;;;14.98;3.30;;;;;;;;;;4990898;28;20023;-78
2023/05/17 13:23:23;;;;;;;8.23;3.30;;;;;;;;;;4990701;28;20047;-79
2023/05/17 13:25:49;;;;;;;13.18;3.22;;;;;;;;;;4990173;28;20022;-79
2023/05/17 13:28:15;;;;;;;13.77;3.00;;;;;;;;;;4992425;28;20027;-78
2023/05/17 13:30:47;;;;;;;11.70;2.58;;;;;;;;;;4989313;28;20091;-77
2023/05/17 13:33:15;;;;;;;9.73;3.50;;;;;;;;;;4990449;28;20098;-79
2023/05/17 13:35:44;;;;;;;11.57;3.38;;;;;;;;;;4993036;28;20049;-77
2023/05/17 13:38:10;;;;;;;14.48;3.60;;;;;;;;;;4986701;28;20031;-79
2023/05/17 13:40:43;;;;;;;10.05;3.13;;;;;;;;;;4990668;28;20011;-77
2023/05/17 13:43:10;;;;;;;5.90;2.67;;;;;;;;;;4992481;28;20042;-76
2023/05/17 13:45:36;;;;;;;12.05;3.50;;;;;;;;;;4990773;28;20023;-78
2023/05/17 13:48:02;;;;;;;12.05;2.58;;;;;;;;;;4989490;28;20069;-78
2023/05/17 13:50:28;;;;;;;10.40;3.15;;;;;;;;;;4990179;28;20038;-78
2023/05/17 13:52:54;;;;;;;9.80;2.80;;;;;;;;;;4991263;28;20038;-79
2023/05/17 13:55:20;;;;;;;6.28;3.03;;;;;;;;;;4991286;28;20035;-78
2023/05/17 13:57:49;;;;;;;13.77;3.40;;;;;;;;;;4989932;28;20026;-77
2023/05/17 14:00:15;;;;;;;14.00;2.63;;;;;;;;;;4989183;28;20034;-78
2023/05/17 14:02:44;;;;;;;11.80;3.40;;;;;;;;;;4990030;28;20022;-77
2023/05/17 14:05:11;;;;;;;9.07;2.63;;;;;;;;;;4987932;28;20826;-79
2023/05/17 14:07:44;;;;;;;15.85;3.40;;;;;;;;;;4990104;28;20042;-79
2023/05/17 14:10:16;;;;;;;7.93;2.50;;;;;;;;;;4986853;28;20090;-77
2023/05/17 14:12:42;;;;;;;;;;;;;;;;;;4991159;28;20035;-79
2023/05/17 14:15:09;;;;;;;7.22;2.60;;;;;;;;;;4991187;28;19917;-78
2023/05/17 14:17:35;;;;;;;11.50;2.45;;;;;;;;;;4990180;28;20039;-79
2023/05/17 14:20:02;;;;;;;11.35;2.85;;;;;;;;;;4990047;28;20091;-78
2023/05/17 14:22:28;;;;;;;9.00;2.40;;;;;;;;;;4991633;28;20110;-78
2023/05/17 14:24:54;;;;;;;10.63;2.88;;;;;;;;;;4990865;28;20033;-79
2023/05/17 14:27:20;;;;;;;11.48;2.95;;;;;;;;;;4988870;28;20035;-78
2023/05/17 14:29:46;;;;;;;9.02;2.88;;;;;;;;;;4989734;28;20034;-78
2023/05/17 14:32:12;;;;;;;10.32;2.35;;;;;;;;;;4987709;28;20023;-77
2023/05/17 14:34:39;;;;;;;9.77;2.47;;;;;;;;;;4990290;28;20015;-79
2023/05/17 14:37:10;;;;;;;8.30;2.40;;;;;;;;;;4988368;28;20051;-79
2023/05/17 14:39:36;;;;;;;6.80;2.00;;;;;;;;;;4987381;28;20041;-77
2023/05/17 14:42:02;;;;;;;9.63;2.28;;;;;;;;;;4984228;28;20019;-79
2023/05/17 14:44:33;;;;;;;6.43;2.28;;;;;;;;;;4989594;28;20046;-78
2023/05/17 14:46:59;;;;;;;7.28;2.10;;;;;;;;;;4989932;28;20029;-79